Time;durP1;ratioP1;P1;durP2;ratioP2;P2;SDS_P1;SDS_P2;PMS_P1;PMS_P2;Temp;Humidity;BMP_temperature;BMP_pressure;BME280_temperature;BME280_humidity;BME280_pressure;Samples;Min_cycle;Max_cycle;Signal;HPM_P1;HPM_P2
2021/09/08 00:01:05;;;;;;;12.68;8.65;;;;;;;13.81;46.39;96014.38;4973060;28;20022;-79
2021/09/08 00:03:30;;;;;;;10.48;7.95;;;;;;;13.66;46.22;96009.88;4970801;28;20034;-79
2021/09/08 00:05:56;;;;;;;13.82;7.60;;;;;;;13.57;46.22;96009.16;4979990;28;20027;-79
2021/09/08 00:08:21;;;;;;;11.57;6.70;;;;;;;13.61;45.85;96003.44;4995809;28;20097;-78
2021/09/08 00:10:47;;;;;;;9.68;7.32;;;;;;;13.63;45.94;96001.44;4965696;28;20420;-79
2021/09/08 00:13:12;;;;;;;14.70;7.35;;;;;;;13.65;45.70;96002.06;4981444;28;20061;-79
2021/09/08 00:15:38;;;;;;;9.35;6.00;;;;;;;13.76;45.02;95992.69;4985158;28;20042;-79
2021/09/08 00:18:03;;;;;;;12.02;5.85;;;;;;;13.86;44.43;95990.56;4946082;28;20023;-78
2021/09/08 00:20:29;;;;;;;12.93;6.90;;;;;;;13.92;44.45;95994.34;4978370;28;20042;-79
2021/09/08 00:22:54;;;;;;;10.15;6.97;;;;;;;13.97;44.42;95991.91;4944646;28;20036;-79
2021/09/08 00:25:20;;;;;;;13.55;8.15;;;;;;;13.89;44.76;95986.69;4962288;28;20054;-79
2021/09/08 00:27:45;;;;;;;16.60;9.55;;;;;;;13.75;46.34;95977.66;4960536;28;20038;-78
2021/09/08 00:30:11;;;;;;;11.43;8.27;;;;;;;13.54;46.35;95984.66;4981802;28;20574;-79
2021/09/08 00:32:36;;;;;;;10.73;7.82;;;;;;;13.30;46.62;95991.97;4981884;28;20038;-79
2021/09/08 00:35:03;;;;;;;14.27;8.45;;;;;;;13.12;46.77;95984.34;4996951;28;20392;-78
2021/09/08 00:37:28;;;;;;;13.93;8.30;;;;;;;13.12;47.77;95982.47;4965890;28;20058;-78
2021/09/08 00:39:54;;;;;;;12.27;8.32;;;;;;;13.20;47.46;95976.22;4961730;28;20441;-79
2021/09/08 00:42:19;;;;;;;13.40;8.82;;;;;;;13.27;48.23;95977.16;4946718;28;21063;-80
2021/09/08 00:44:45;;;;;;;11.38;8.48;;;;;;;13.27;47.02;95981.66;4980323;28;20038;-80
2021/09/08 00:47:14;;;;;;;12.95;7.95;;;;;;;13.35;47.12;95968.16;4977839;28;20035;-78
2021/09/08 00:49:39;;;;;;;11.35;7.95;;;;;;;13.38;47.14;95973.16;4943177;29;20023;-79
2021/09/08 00:52:06;;;;;;;10.50;7.07;;;;;;;13.46;46.63;95969.53;4977819;28;20053;-79
2021/09/08 00:54:31;;;;;;;12.20;8.70;;;;;;;13.47;46.88;95962.34;4997325;28;20070;-79
2021/09/08 00:56:57;;;;;;;12.20;9.15;;;;;;;13.43;47.79;95964.56;4965292;28;20039;-79
2021/09/08 00:59:22;;;;;;;12.02;7.75;;;;;;;13.39;47.25;95968.63;4964416;28;20049;-79
2021/09/08 01:01:48;;;;;;;11.90;8.45;;;;;;;13.40;46.92;95971.09;4981558;28;20050;-78
2021/09/08 01:04:16;;;;;;;12.85;8.02;;;;;;;13.33;47.19;95967.53;5010984;28;20603;-80
2021/09/08 01:06:42;;;;;;;12.40;8.23;;;;;;;13.25;47.69;95964.94;4985641;28;20595;-79
2021/09/08 01:09:07;;;;;;;12.25;7.85;;;;;;;13.20;47.68;95965.53;4984979;28;20030;-79
2021/09/08 01:11:36;;;;;;;11.18;8.02;;;;;;;13.28;47.50;95964.59;4988952;28;20108;-79
2021/09/08 01:14:01;;;;;;;9.80;7.47;;;;;;;13.30;47.57;95957.22;4984726;28;20034;-79
2021/09/08 01:16:27;;;;;;;11.95;7.35;;;;;;;13.28;47.53;95957.41;4979754;28;20038;-78
2021/09/08 01:18:57;;;;;;;12.75;8.25;;;;;;;13.27;47.59;95962.94;4985534;28;20039;-79
2021/09/08 01:21:23;;;;;;;11.10;7.78;;;;;;;13.25;47.63;95954.25;4985517;28;20077;-79
2021/09/08 01:23:48;;;;;;;12.50;7.70;;;;;;;13.33;47.50;95964.88;4968943;28;20042;-80
2021/09/08 01:26:13;;;;;;;12.25;8.13;;;;;;;13.35;47.59;95957.47;4998733;28;20093;-78
2021/09/08 01:28:39;;;;;;;10.38;7.65;;;;;;;13.52;46.86;95962.59;4965316;28;20073;-79
2021/09/08 01:31:04;;;;;;;12.02;7.43;;;;;;;13.42;47.20;95950.38;4973958;28;20042;-79
2021/09/08 01:33:30;;;;;;;12.73;7.65;;;;;;;13.42;46.90;95947.69;4965853;28;20078;-80
2021/09/08 01:35:55;;;;;;;9.35;7.65;;;;;;;13.45;46.59;95946.47;4971128;28;20086;-79
2021/09/08 01:38:21;;;;;;;9.75;7.18;;;;;;;13.52;46.77;95943.88;4939613;28;20098;-80
2021/09/08 01:40:46;;;;;;;12.77;7.03;;;;;;;13.39;47.38;95942.72;4939091;28;20070;-80
2021/09/08 01:43:12;;;;;;;11.15;7.50;;;;;;;13.42;47.30;95934.31;4982696;28;20046;-79
2021/09/08 01:45:39;;;;;;;10.07;7.53;;;;;;;13.37;47.32;95939.41;4950321;28;20054;-79
2021/09/08 01:48:04;;;;;;;11.38;8.05;;;;;;;13.41;47.33;95934.50;4982367;28;20042;-79
2021/09/08 01:50:30;;;;;;;10.85;7.60;;;;;;;13.49;46.80;95941.59;4984869;28;20041;-79
2021/09/08 01:52:55;;;;;;;11.07;7.90;;;;;;;13.48;47.40;95938.09;5001769;28;20045;-79
2021/09/08 01:55:20;;;;;;;9.02;7.53;;;;;;;13.49;47.41;95933.56;4984490;28;20058;-80
2021/09/08 01:57:46;;;;;;;12.13;6.60;;;;;;;13.51;47.17;95928.84;4986168;28;20047;-79
2021/09/08 02:00:13;;;;;;;9.75;7.68;;;;;;;13.49;47.14;95933.56;4985564;28;20042;-79
2021/09/08 02:02:38;;;;;;;11.10;7.10;;;;;;;13.56;46.90;95937.97;4969439;28;20037;-79
2021/09/08 02:05:04;;;;;;;11.88;7.28;;;;;;;13.62;46.60;95935.53;4969933;28;20030;-79
2021/09/08 02:07:29;;;;;;;12.43;7.20;;;;;;;13.61;47.22;95918.69;5001098;28;20061;-79
2021/09/08 02:09:56;;;;;;;11.30;7.85;;;;;;;13.63;46.73;95924.66;4984643;28;20526;-79
2021/09/08 02:12:22;;;;;;;11.77;7.53;;;;;;;13.66;46.52;95929.63;4982351;28;20054;-79
2021/09/08 02:14:47;;;;;;;10.10;7.28;;;;;;;13.62;46.56;95920.34;4982724;28;20046;-78
2021/09/08 02:17:12;;;;;;;11.35;6.47;;;;;;;13.67;46.26;95928.59;4985300;28;20390;-79
2021/09/08 02:19:38;;;;;;;9.88;6.70;;;;;;;13.65;46.27;95913.78;4977798;28;20066;-79
2021/09/08 02:22:03;;;;;;;11.55;7.70;;;;;;;13.64;47.14;95918.31;4967871;28;20026;-79
2021/09/08 02:24:29;;;;;;;9.70;7.07;;;;;;;13.73;46.32;95918.19;4984641;28;20026;-79
2021/09/08 02:26:54;;;;;;;9.75;7.07;;;;;;;13.69;46.50;95915.03;4980490;28;20039;-79
2021/09/08 02:29:19;;;;;;;10.13;7.10;;;;;;;13.73;46.14;95913.63;4984547;28;20030;-79
2021/09/08 02:31:45;;;;;;;12.18;7.82;;;;;;;13.68;45.97;95916.91;4967388;28;20076;-79
2021/09/08 02:34:10;;;;;;;16.38;9.73;;;;;;;13.62;46.59;95904.28;4983086;28;20037;-79
2021/09/08 02:36:36;;;;;;;14.63;7.85;;;;;;;13.63;47.04;95907.78;4983473;28;20034;-79
2021/09/08 02:39:01;;;;;;;10.50;7.53;;;;;;;13.68;46.44;95906.22;4981703;28;20042;-79
2021/09/08 02:41:27;;;;;;;11.45;7.85;;;;;;;13.63;47.12;95907.78;4963789;28;20034;-79
2021/09/08 02:43:52;;;;;;;10.65;8.40;;;;;;;13.62;47.16;95904.28;4998081;28;20031;-80
2021/09/08 02:46:18;;;;;;;12.32;8.40;;;;;;;13.60;47.84;95905.50;4998182;28;20037;-79
2021/09/08 02:48:43;;;;;;;11.70;7.72;;;;;;;13.65;47.30;95903.91;4981914;28;20096;-79
2021/09/08 02:51:09;;;;;;;13.60;8.23;;;;;;;13.68;46.86;95903.53;4981324;28;20067;-79
2021/09/08 02:53:34;;;;;;;10.55;6.90;;;;;;;13.74;46.84;95901.94;4965709;28;20176;-79
2021/09/08 02:56:03;;;;;;;11.00;8.02;;;;;;;13.77;46.84;95900.72;4965014;28;20062;-79
2021/09/08 02:58:29;;;;;;;11.75;8.18;;;;;;;13.77;46.45;95898.06;4999430;28;20038;-79
2021/09/08 03:00:55;;;;;;;12.13;8.13;;;;;;;13.74;46.58;95891.25;4997344;28;20390;-79
2021/09/08 03:03:20;;;;;;;10.85;7.60;;;;;;;13.79;46.84;95887.97;4965092;28;20042;-79
2021/09/08 03:05:46;;;;;;;10.70;7.15;;;;;;;13.74;46.60;95887.72;4976259;28;20057;-79
2021/09/08 03:08:12;;;;;;;10.80;7.60;;;;;;;13.73;47.21;95889.56;4979755;28;20066;-78
2021/09/08 03:10:39;;;;;;;11.00;6.88;;;;;;;13.76;46.72;95883.84;4981213;28;20785;-78
2021/09/08 03:13:05;;;;;;;11.93;7.18;;;;;;;13.75;47.58;95887.53;4981992;28;20789;-79
2021/09/08 03:15:31;;;;;;;14.60;7.40;;;;;;;13.74;46.85;95890.41;4980146;28;20045;-78
2021/09/08 03:17:57;;;;;;;10.73;7.70;;;;;;;13.75;46.74;95882.19;4964903;28;20030;-78
2021/09/08 03:20:22;;;;;;;12.43;8.07;;;;;;;13.67;47.42;95885.81;4981530;28;20513;-79
2021/09/08 03:22:47;;;;;;;12.23;8.60;;;;;;;13.58;48.16;95881.59;4978793;28;20105;-79
2021/09/08 03:25:13;;;;;;;12.43;8.05;;;;;;;13.55;47.79;95876.63;4961482;28;20034;-79
2021/09/08 03:27:40;;;;;;;11.70;7.57;;;;;;;13.63;47.38;95879.19;5001914;28;20034;-80
2021/09/08 03:30:06;;;;;;;11.67;7.67;;;;;;;13.64;47.32;95885.38;4996552;28;20022;-78
2021/09/08 03:32:32;;;;;;;10.57;7.15;;;;;;;13.66;47.27;95886.81;4980621;28;20308;-79
2021/09/08 03:34:57;;;;;;;11.18;7.88;;;;;;;13.63;47.49;95883.72;4972056;28;20035;-79
2021/09/08 03:37:23;;;;;;;12.98;8.52;;;;;;;13.60;47.68;95879.56;4945052;28;20031;-78
2021/09/08 03:39:48;;;;;;;11.25;8.23;;;;;;;13.55;48.10;95873.97;4969119;28;20042;-79
2021/09/08 03:42:14;;;;;;;13.43;9.25;;;;;;;13.46;48.23;95877.78;4995118;28;20030;-79
2021/09/08 03:44:39;;;;;;;15.05;8.75;;;;;;;13.46;48.52;95880.47;4963782;28;20027;-79
2021/09/08 03:47:05;;;;;;;11.77;9.15;;;;;;;13.37;48.67;95877.06;4974489;28;20101;-78
2021/09/08 03:49:31;;;;;;;13.02;9.02;;;;;;;13.38;48.78;95871.53;4981023;28;20030;-78
2021/09/08 03:51:57;;;;;;;13.32;8.70;;;;;;;13.47;48.18;95882.13;4963608;28;20049;-79
2021/09/08 03:54:22;;;;;;;12.98;7.15;;;;;;;13.56;47.81;95881.78;4975241;28;20038;-79
2021/09/08 03:56:48;;;;;;;11.15;8.23;;;;;;;13.57;47.78;95885.31;4995579;28;20522;-79
2021/09/08 03:59:13;;;;;;;13.45;8.35;;;;;;;13.55;47.74;95885.50;4979043;28;20388;-79
2021/09/08 04:01:39;;;;;;;11.57;8.35;;;;;;;13.51;48.30;95884.22;4963191;28;20030;-79
2021/09/08 04:04:05;;;;;;;14.20;8.57;;;;;;;13.49;48.31;95872.06;4979137;28;20387;-79
2021/09/08 04:06:31;;;;;;;12.60;8.73;;;;;;;13.44;48.82;95877.97;4980283;28;20534;-78
2021/09/08 04:08:56;;;;;;;13.23;8.25;;;;;;;13.47;48.47;95876.75;4962592;28;20026;-79
2021/09/08 04:11:21;;;;;;;11.25;8.68;;;;;;;13.39;48.61;95867.84;4985126;28;20050;-78
2021/09/08 04:13:47;;;;;;;11.70;8.35;;;;;;;13.31;48.70;95865.28;4943111;28;20051;-79
2021/09/08 04:16:12;;;;;;;11.30;8.27;;;;;;;13.25;49.11;95866.03;4975206;28;20086;-78
2021/09/08 04:18:38;;;;;;;11.55;8.20;;;;;;;13.17;48.89;95867.00;4974872;28;20038;-79
2021/09/08 04:21:03;;;;;;;11.73;9.07;;;;;;;13.13;49.22;95869.19;4977021;28;20026;-79
2021/09/08 04:23:29;;;;;;;11.13;7.68;;;;;;;13.21;48.49;95859.41;4978545;28;20038;-78
2021/09/08 04:25:54;;;;;;;11.45;7.78;;;;;;;13.27;48.09;95856.00;4995449;28;20506;-79
2021/09/08 04:28:20;;;;;;;13.65;8.30;;;;;;;13.30;47.94;95858.28;4970378;28;20483;-78
2021/09/08 04:30:45;;;;;;;12.18;8.13;;;;;;;13.21;48.35;95859.41;4981939;28;20042;-79
2021/09/08 04:33:10;;;;;;;12.82;8.27;;;;;;;13.29;48.46;95859.28;4951727;28;20043;-78
2021/09/08 04:35:36;;;;;;;11.43;7.53;;;;;;;13.34;47.83;95856.91;4973618;28;20042;-79
2021/09/08 04:38:01;;;;;;;13.80;9.35;;;;;;;13.36;48.07;95852.16;4995931;28;20057;-79
2021/09/08 04:40:27;;;;;;;12.10;8.70;;;;;;;13.14;49.01;95852.16;4963596;28;20093;-79
2021/09/08 04:42:52;;;;;;;11.85;8.02;;;;;;;13.21;48.66;95854.06;4967005;28;20045;-78
2021/09/08 04:45:18;;;;;;;12.18;8.43;;;;;;;13.26;48.55;95857.81;4995108;28;20035;-78
2021/09/08 04:47:43;;;;;;;12.10;7.82;;;;;;;13.35;48.40;95861.22;4977951;28;20038;-79
2021/09/08 04:50:09;;;;;;;11.52;8.63;;;;;;;13.37;48.12;95855.69;4957063;28;20034;-80
2021/09/08 04:52:35;;;;;;;13.65;8.90;;;;;;;13.31;48.22;95858.09;4959140;28;20050;-78
2021/09/08 04:55:01;;;;;;;12.43;8.40;;;;;;;13.32;47.64;95853.56;4974659;28;20023;-79
2021/09/08 04:57:26;;;;;;;11.07;7.75;;;;;;;13.37;47.96;95851.16;4975938;28;20031;-79
2021/09/08 04:59:52;;;;;;;13.93;8.65;;;;;;;13.37;48.01;95859.19;4985813;28;20054;-78
2021/09/08 05:02:17;;;;;;;12.65;7.97;;;;;;;13.49;47.69;95864.84;4960260;28;20038;-79
2021/09/08 05:04:43;;;;;;;9.55;7.60;;;;;;;13.57;47.36;95863.91;4960925;28;20034;-79
2021/09/08 05:07:08;;;;;;;12.40;7.72;;;;;;;13.59;47.29;95856.50;4984949;28;20373;-79
2021/09/08 05:09:34;;;;;;;11.93;7.60;;;;;;;13.64;46.58;95858.63;4959742;28;20035;-78
2021/09/08 05:11:59;;;;;;;15.68;8.43;;;;;;;13.59;46.95;95861.06;4973583;28;20047;-79
2021/09/08 05:14:25;;;;;;;10.60;8.60;;;;;;;13.51;47.62;95857.47;4987405;28;20034;-79
2021/09/08 05:16:50;;;;;;;11.48;8.73;;;;;;;13.43;47.95;95858.41;4964325;28;20105;-79
2021/09/08 05:19:15;;;;;;;11.27;8.73;;;;;;;13.42;47.76;95862.13;4995643;28;20046;-79
2021/09/08 05:21:41;;;;;;;12.27;9.15;;;;;;;13.37;48.40;95864.53;4979899;28;20451;-80
2021/09/08 05:24:06;;;;;;;11.13;8.48;;;;;;;13.43;47.84;95858.41;4995390;28;20045;-78
2021/09/08 05:26:32;;;;;;;11.35;8.20;;;;;;;13.57;47.70;95859.38;4995688;28;20464;-79
2021/09/08 05:28:57;;;;;;;11.10;8.23;;;;;;;13.68;47.67;95860.72;4963286;28;20077;-78
2021/09/08 05:31:23;;;;;;;11.65;7.65;;;;;;;13.78;47.18;95863.06;4994307;28;20038;-79
2021/09/08 05:33:48;;;;;;;11.45;7.93;;;;;;;13.87;46.88;95863.75;4993043;28;20035;-79
2021/09/08 05:36:15;;;;;;;12.48;8.00;;;;;;;14.00;46.48;95856.91;4977043;28;20049;-79
2021/09/08 05:38:41;;;;;;;12.00;7.97;;;;;;;14.08;46.28;95860.25;4959660;28;20419;-78
2021/09/08 05:41:08;;;;;;;11.27;8.02;;;;;;;14.17;46.19;95849.38;4992655;28;20069;-79
2021/09/08 05:43:34;;;;;;;10.07;7.95;;;;;;;14.29;45.96;95858.56;4991923;28;20105;-79
2021/09/08 05:45:59;;;;;;;11.55;7.10;;;;;;;14.34;45.96;95857.94;4991832;28;20049;-79
2021/09/08 05:48:25;;;;;;;11.48;8.13;;;;;;;14.44;45.84;95858.44;4976672;28;20041;-79
2021/09/08 05:50:50;;;;;;;12.50;8.00;;;;;;;14.52;45.97;95853.94;4961595;28;20046;-79
2021/09/08 05:53:16;;;;;;;11.25;7.93;;;;;;;14.55;45.81;95861.59;4964022;28;20115;-78
2021/09/08 05:55:41;;;;;;;11.88;7.35;;;;;;;14.71;45.73;95857.75;4978592;28;20069;-78
2021/09/08 05:58:06;;;;;;;13.23;8.20;;;;;;;14.80;45.29;95853.06;4977828;28;20422;-79
2021/09/08 06:00:32;;;;;;;10.80;8.38;;;;;;;14.91;45.19;95851.66;4963315;28;20444;-79
2021/09/08 06:02:57;;;;;;;13.35;8.45;;;;;;;14.95;45.46;95859.13;4994499;28;20567;-79
2021/09/08 06:05:23;;;;;;;10.50;7.65;;;;;;;15.08;45.31;95862.88;4988863;28;20035;-79
2021/09/08 06:07:48;;;;;;;12.75;8.30;;;;;;;15.18;45.19;95857.97;4977701;28;20054;-79
2021/09/08 06:10:17;;;;;;;11.10;8.00;;;;;;;15.30;44.85;95860.88;4977278;28;20461;-79
2021/09/08 06:12:44;;;;;;;12.20;8.02;;;;;;;15.41;45.09;95861.31;4963526;28;20637;-79
2021/09/08 06:15:11;;;;;;;10.45;7.43;;;;;;;15.56;45.15;95858.47;4967328;28;20634;-78
2021/09/08 06:17:37;;;;;;;9.65;7.90;;;;;;;15.69;44.66;95857.69;4976702;28;20142;-80
2021/09/08 06:20:02;;;;;;;15.05;10.18;;;;;;;15.69;44.21;95861.19;4995571;28;20042;-78
2021/09/08 06:22:28;;;;;;;14.13;10.48;;;;;;;15.70;44.13;95856.63;4976124;28;20034;-78
2021/09/08 06:24:53;;;;;;;16.05;11.95;;;;;;;15.69;43.94;95858.50;4991472;28;20542;-79
2021/09/08 06:27:19;;;;;;;20.65;15.85;;;;;;;15.72;44.28;95857.28;4974811;28;20150;-81
2021/09/08 06:29:44;;;;;;;19.17;13.50;;;;;;;15.80;45.06;95861.59;4968271;28;20684;-78
2021/09/08 06:32:10;;;;;;;17.33;12.88;;;;;;;15.91;43.61;95852.94;4974617;28;20407;-79
2021/09/08 06:34:35;;;;;;;17.58;12.73;;;;;;;16.11;42.55;95860.16;4959604;28;20038;-79
2021/09/08 06:37:01;;;;;;;17.00;13.45;;;;;;;16.22;42.41;95862.22;4981180;28;20100;-80
2021/09/08 06:39:26;;;;;;;20.50;13.35;;;;;;;16.22;42.55;95858.72;4995042;28;20049;-79
2021/09/08 06:41:51;;;;;;;18.73;13.48;;;;;;;16.50;42.92;95861.19;4958787;28;20027;-81
2021/09/08 06:44:17;;;;;;;17.30;12.50;;;;;;;16.60;41.74;95857.22;4955934;28;20026;-79
2021/09/08 06:46:43;;;;;;;14.98;11.73;;;;;;;16.83;41.55;95851.34;4961273;28;20050;-80
2021/09/08 06:49:08;;;;;;;15.80;10.00;;;;;;;17.00;42.72;95849.03;4994500;28;20034;-81
2021/09/08 06:51:34;;;;;;;17.80;13.00;;;;;;;17.05;41.25;95850.25;4992671;28;20093;-80
2021/09/08 06:53:59;;;;;;;13.35;11.25;;;;;;;17.21;41.09;95852.50;4995511;28;20042;-79
2021/09/08 06:56:25;;;;;;;14.23;10.50;;;;;;;17.32;40.50;95844.75;4979491;28;20053;-80
2021/09/08 06:58:50;;;;;;;13.88;10.23;;;;;;;17.47;40.79;95844.47;4962382;28;20038;-81
2021/09/08 07:01:16;;;;;;;14.20;10.57;;;;;;;17.61;40.10;95845.22;4994076;28;20027;-80
2021/09/08 07:03:41;;;;;;;11.85;9.63;;;;;;;17.76;40.08;95843.03;4978153;28;20403;-81
2021/09/08 07:06:06;;;;;;;14.25;10.57;;;;;;;17.92;38.83;95849.75;4968366;28;20499;-66
2021/09/08 07:08:32;;;;;;;13.00;9.82;;;;;;;17.98;39.54;95844.56;4986679;28;20658;-80
2021/09/08 07:10:57;;;;;;;16.27;11.55;;;;;;;18.18;38.63;95838.97;4979641;28;20035;-80
2021/09/08 07:13:23;;;;;;;17.60;12.27;;;;;;;18.17;38.52;95842.72;4962862;28;20466;-80
2021/09/08 07:15:48;;;;;;;12.32;9.07;;;;;;;18.40;38.21;95839.41;4961449;28;20031;-81
2021/09/08 07:18:14;;;;;;;13.82;9.82;;;;;;;18.62;37.97;95838.97;4970000;28;20463;-81
2021/09/08 07:20:41;;;;;;;12.48;9.13;;;;;;;18.71;39.50;95835.97;4964055;28;20092;-81
2021/09/08 07:23:07;;;;;;;12.13;8.63;;;;;;;18.87;38.61;95835.38;4969942;28;20415;-80
2021/09/08 07:25:33;;;;;;;11.93;9.43;;;;;;;19.06;38.09;95830.78;4979104;28;20569;-80
2021/09/08 07:27:58;;;;;;;11.02;8.38;;;;;;;19.20;36.94;95838.69;4994323;28;20050;-80
2021/09/08 07:30:24;;;;;;;13.63;8.70;;;;;;;19.32;37.35;95836.94;4977328;28;20034;-80
2021/09/08 07:32:49;;;;;;;17.38;9.85;;;;;;;19.03;37.03;95828.53;4976874;28;20121;-81
2021/09/08 07:35:15;;;;;;;15.02;10.00;;;;;;;18.76;37.69;95833.47;4992304;28;20043;-80
2021/09/08 07:37:40;;;;;;;10.60;8.20;;;;;;;19.28;38.04;95829.50;4993658;28;20033;-81
2021/09/08 07:40:07;;;;;;;13.25;8.52;;;;;;;19.46;36.76;95837.56;4959556;28;20049;-80
2021/09/08 07:42:32;;;;;;;11.98;9.15;;;;;;;19.78;35.49;95833.75;4960460;28;20027;-80
2021/09/08 07:44:58;;;;;;;12.98;8.40;;;;;;;19.38;37.46;95835.16;4961227;28;20030;-80
2021/09/08 07:47:23;;;;;;;13.57;9.52;;;;;;;19.41;36.13;95833.91;4961388;28;20042;-80
2021/09/08 07:49:48;;;;;;;13.93;10.55;;;;;;;19.62;36.13;95834.41;4979648;28;20038;-80
2021/09/08 07:52:14;;;;;;;15.57;10.57;;;;;;;19.56;35.88;95834.28;4978665;28;20041;-80
2021/09/08 07:54:39;;;;;;;13.07;9.50;;;;;;;19.74;36.24;95835.25;4964628;28;20046;-81
2021/09/08 07:57:05;;;;;;;11.93;9.70;;;;;;;19.47;36.33;95830.25;4962462;28;20030;-80
2021/09/08 07:59:30;;;;;;;12.43;9.18;;;;;;;19.79;35.76;95838.09;4996178;28;20065;-80
2021/09/08 08:01:56;;;;;;;13.05;9.32;;;;;;;20.14;35.08;95835.69;4960404;28;20088;-80
2021/09/08 08:04:21;;;;;;;14.00;9.27;;;;;;;20.18;35.12;95844.97;4981835;28;20038;-80
2021/09/08 08:06:47;;;;;;;13.27;8.77;;;;;;;20.63;34.45;95832.75;4986993;28;20045;-80
2021/09/08 08:09:12;;;;;;;10.77;8.75;;;;;;;20.30;34.66;95836.88;4961796;28;20083;-80
2021/09/08 08:11:38;;;;;;;11.45;7.53;;;;;;;20.66;35.13;95836.88;4983125;28;20038;-80
2021/09/08 08:14:03;;;;;;;10.20;8.57;;;;;;;20.77;34.21;95827.09;4992715;28;20041;-80
2021/09/08 08:16:29;;;;;;;13.00;8.27;;;;;;;20.82;33.93;95840.72;4960319;28;20027;-79
2021/09/08 08:18:54;;;;;;;9.15;7.45;;;;;;;21.28;34.09;95832.72;4971871;28;20035;-79
2021/09/08 08:21:19;;;;;;;10.32;8.15;;;;;;;21.30;33.54;95836.00;4975969;28;20034;-79
2021/09/08 08:23:45;;;;;;;11.10;8.77;;;;;;;21.07;33.81;95832.28;4992124;28;20360;-79
2021/09/08 08:26:10;;;;;;;11.52;8.60;;;;;;;20.82;34.26;95844.25;4973195;28;20407;-80
2021/09/08 08:28:36;;;;;;;13.65;9.20;;;;;;;20.80;34.32;95843.66;4974399;28;20036;-80
2021/09/08 08:31:01;;;;;;;10.95;7.60;;;;;;;21.23;33.85;95828.00;4968765;28;20034;-80
2021/09/08 08:33:27;;;;;;;10.98;7.55;;;;;;;21.38;33.07;95827.50;4975606;28;20030;-79
2021/09/08 08:35:53;;;;;;;13.38;8.55;;;;;;;21.50;33.16;95822.03;4958396;28;20305;-78
2021/09/08 08:38:18;;;;;;;10.20;7.65;;;;;;;21.13;33.35;95819.69;4973844;28;20121;-79
2021/09/08 08:40:44;;;;;;;10.18;7.70;;;;;;;21.59;32.81;95821.63;4949060;28;20101;-80
2021/09/08 08:43:09;;;;;;;8.60;6.80;;;;;;;21.64;32.46;95830.66;4972831;28;20292;-79
2021/09/08 08:45:35;;;;;;;10.10;8.20;;;;;;;21.31;32.95;95826.00;4972996;28;20227;-79
2021/09/08 08:48:00;;;;;;;9.27;7.38;;;;;;;21.36;33.29;95824.22;4951303;28;20034;-79
2021/09/08 08:50:26;;;;;;;12.57;9.30;;;;;;;21.41;33.07;95828.09;4945955;28;20027;-79
2021/09/08 08:52:55;;;;;;;11.00;8.18;;;;;;;21.92;32.44;95830.06;4968327;28;20677;-78
2021/09/08 08:55:21;;;;;;;10.43;7.65;;;;;;;22.10;32.29;95821.66;4964974;28;20154;-79
2021/09/08 08:57:48;;;;;;;10.02;7.43;;;;;;;22.35;31.69;95825.00;4973279;28;20026;-79
2021/09/08 09:00:15;;;;;;;9.82;6.72;;;;;;;22.12;31.96;95824.13;4973684;28;20043;-80
2021/09/08 09:02:44;;;;;;;;;;;;;;;22.59;31.69;95819.38;4958763;28;20042;-80
2021/09/08 09:05:09;;;;;;;14.48;7.93;;;;;;;22.07;31.94;95813.22;4988035;28;19921;-79
2021/09/08 09:07:37;;;;;;;11.15;7.55;;;;;;;22.22;32.00;95812.59;4993448;28;20034;-80
2021/09/08 09:10:10;;;;;;;10.38;7.70;;;;;;;22.45;31.05;95810.75;4963504;28;20027;-79
2021/09/08 09:12:38;;;;;;;12.13;6.93;;;;;;;22.72;31.26;95816.31;4995097;28;20073;-80
2021/09/08 09:15:05;;;;;;;10.75;7.20;;;;;;;22.83;30.83;95813.72;4980294;28;20570;-80
2021/09/08 09:17:31;;;;;;;9.27;6.90;;;;;;;23.04;30.43;95801.22;4978401;28;20030;-80
2021/09/08 09:19:57;;;;;;;10.40;8.37;;;;;;;23.07;30.41;95805.34;4978985;28;20097;-80
2021/09/08 09:22:39;;;;;;;10.77;6.90;;;;;;;23.29;30.02;95813.47;4961396;28;20042;-79
2021/09/08 09:25:06;;;;;;;11.55;8.35;;;;;;;22.65;30.84;95805.66;4994835;28;20042;-79
2021/09/08 09:27:35;;;;;;;;;;;;;;;23.16;29.18;95810.09;4983238;28;20034;-80
2021/09/08 09:30:09;;;;;;;10.02;6.70;;;;;;;23.21;29.63;95806.59;4998661;28;19959;-79
2021/09/08 09:32:36;;;;;;;10.32;7.00;;;;;;;23.74;29.41;95803.31;4983984;28;20631;-80
2021/09/08 09:35:01;;;;;;;12.20;7.53;;;;;;;23.86;29.53;95796.91;4965549;28;20042;-79
2021/09/08 09:37:31;;;;;;;8.45;6.20;;;;;;;24.16;28.55;95806.34;4979177;28;20092;-79
2021/09/08 09:39:56;;;;;;;8.27;6.18;;;;;;;24.09;28.45;95797.59;4974107;28;20042;-77
2021/09/08 09:42:23;;;;;;;16.60;8.77;;;;;;;24.45;28.69;95795.94;4949310;28;20104;-69
2021/09/08 09:44:48;;;;;;;;;;;;;;;24.79;27.76;95802.09;4977945;28;20046;-80
2021/09/08 09:47:14;;;;;;;9.33;6.53;;;;;;;24.32;26.89;95805.41;4996544;28;19918;-79
2021/09/08 09:49:39;;;;;;;10.50;8.55;;;;;;;24.45;28.18;95798.66;4993250;28;20477;-79
2021/09/08 09:52:06;;;;;;;15.10;11.70;;;;;;;24.19;28.55;95803.09;4976414;28;20392;-79
2021/09/08 09:54:32;;;;;;;13.68;8.02;;;;;;;24.78;28.00;95797.75;4964102;28;20065;-79
2021/09/08 09:56:58;;;;;;;15.50;12.30;;;;;;;24.75;27.61;95798.25;4958146;28;20027;-79
2021/09/08 09:59:23;;;;;;;8.90;6.97;;;;;;;24.95;26.87;95798.38;4969497;28;20539;-80
2021/09/08 10:01:49;;;;;;;11.73;9.77;;;;;;;24.72;28.00;95788.72;4994244;28;20031;-80
2021/09/08 10:04:14;;;;;;;8.40;5.87;;;;;;;25.12;27.45;95791.06;4961140;28;20026;-79
2021/09/08 10:06:40;;;;;;;10.50;6.57;;;;;;;25.35;27.05;95790.56;4993494;28;20045;-79
2021/09/08 10:09:06;;;;;;;12.33;9.30;;;;;;;25.12;26.80;95780.97;4995286;28;20239;-80
2021/09/08 10:11:36;;;;;;;10.97;7.10;;;;;;;25.11;27.55;95776.63;4963703;28;20038;-80
2021/09/08 10:14:10;;;;;;;13.43;10.48;;;;;;;25.01;28.06;95771.16;4965074;28;20042;-81
2021/09/08 10:16:35;;;;;;;11.60;7.10;;;;;;;25.51;27.32;95762.53;4979142;28;20027;-80
2021/09/08 10:19:10;;;;;;;8.73;6.67;;;;;;;25.84;26.38;95766.63;4975327;28;20093;-79
2021/09/08 10:21:36;;;;;;;13.48;7.63;;;;;;;26.14;27.03;95752.44;4976805;28;20491;-80
2021/09/08 10:24:05;;;;;;;12.30;10.57;;;;;;;25.86;26.40;95755.44;4954288;28;20049;-79
2021/09/08 10:26:32;;;;;;;12.80;11.38;;;;;;;25.38;26.51;95753.78;4961492;28;20035;-80
2021/09/08 10:29:08;;;;;;;10.77;9.32;;;;;;;25.87;26.63;95748.94;4960839;28;20022;-79
2021/09/08 10:31:38;;;;;;;11.40;8.30;;;;;;;26.22;25.70;95754.63;4962469;28;20035;-79
2021/09/08 10:34:05;;;;;;;10.05;6.53;;;;;;;26.20;24.47;95754.06;4976037;28;20257;-79
2021/09/08 10:36:31;;;;;;;9.10;6.63;;;;;;;26.56;24.89;95755.88;4992944;28;20034;-79
2021/09/08 10:39:11;;;;;;;13.90;11.03;;;;;;;26.22;25.21;95757.34;4966694;28;20380;-79
2021/09/08 10:41:37;;;;;;;10.70;8.95;;;;;;;26.54;24.88;95747.16;4941352;28;20129;-79
2021/09/08 10:44:03;;;;;;;8.95;6.40;;;;;;;27.00;24.78;95744.25;4956174;28;20059;-77
2021/09/08 10:46:57;;;;;;;8.43;6.90;;;;;;;27.01;24.63;95745.88;4988533;28;20035;-79
2021/09/08 10:49:40;;;;;;;8.32;6.65;;;;;;;26.73;24.90;95736.44;4942077;28;20038;-79
2021/09/08 10:52:07;;;;;;;9.60;6.50;;;;;;;26.60;24.57;95740.59;4963332;28;20055;-80
2021/09/08 10:54:32;;;;;;;;;;;;;;;26.82;24.27;95732.03;4957532;28;20041;-79
2021/09/08 10:56:58;;;;;;;8.67;7.47;;;;;;;26.97;24.67;95717.50;4986646;28;19926;-79
2021/09/08 10:59:24;;;;;;;9.13;6.40;;;;;;;26.32;25.56;95718.31;4992201;28;20061;-80
2021/09/08 11:01:55;;;;;;;10.23;8.20;;;;;;;26.13;24.16;95720.81;4959475;28;21078;-79
2021/09/08 11:04:20;;;;;;;11.73;7.07;;;;;;;26.58;25.39;95727.22;4948581;28;20045;-79
2021/09/08 11:06:48;;;;;;;10.03;6.53;;;;;;;26.86;24.09;95722.16;4976804;28;20054;-79
2021/09/08 11:09:14;;;;;;;11.40;9.20;;;;;;;27.06;23.90;95711.44;4977021;28;20038;-79
2021/09/08 11:11:56;;;;;;;7.28;5.57;;;;;;;27.40;24.78;95713.41;4976450;28;20044;-79
2021/09/08 11:14:42;;;;;;;9.23;6.30;;;;;;;27.38;22.82;95710.13;4992648;28;20073;-80
2021/09/08 11:17:08;;;;;;;9.80;7.85;;;;;;;27.46;24.46;95700.50;4979638;28;20031;-79
2021/09/08 11:19:33;;;;;;;9.13;5.40;;;;;;;27.74;22.84;95703.56;4995228;28;20092;-79
2021/09/08 11:21:58;;;;;;;8.77;6.07;;;;;;;27.72;22.17;95692.94;4976208;28;20037;-79